Norwood, CO

4:30 PM MST on February 27, 2015 (GMT -0700)
Cortez Municipal | Change Station
CLOSE
Current Station
Airport
Location: Cortez,
Elevation: 5915 ft
Nearby Weather Stations

Elev 5915 ft 37.31 °N, 108.63 °W | Updated 28 minutes ago

Mostly Cloudy
Mostly Cloudy
32 °F
Feels Like 29 °F
N
4
Wind Variable Wind from WSW

Today
High -- | Low -- °F
--% Chance of Precip.
Yesterday
High -- | Low -- °F
Precip. -- in
6:47 AM 6:04 PM
Waxing Gibbous, 72% visible
Pressure 29.77 in
Visibility 5.0 miles
Clouds Few 500 ft
Mostly Cloudy 3900 ft
Overcast 6000 ft
Windchill 29 °F
Dew Point 29 °F
Humidity 88%
Rainfall 0.00 in
Snow Depth Not available.
UV 1 out of 12
Pollen 2.10 out of 12
Air Quality Not available.
Flu Activity Not available.
SPECI KCEZ 272302Z AUTO 24003KT 5SM -SN BR FEW005 BKN039 OVC060 00/M02 A2977 RMK AO2 P0000 T00001017

More Conditions Fewer Conditions

Pressure 29.77 in
Visibility 5.0 miles
Clouds Few 500 ft
Mostly Cloudy 3900 ft
Overcast 6000 ft
Windchill 29 °F
Dew Point 29 °F
Humidity 88%
Rainfall 0.00 in
Snow Depth Not available.
UV 1 out of 12
Pollen 2.10 out of 12
Air Quality Not available.
Flu Activity Not available.
SPECI KCEZ 272302Z AUTO 24003KT 5SM -SN BR FEW005 BKN039 OVC060 00/M02 A2977 RMK AO2 P0000 T00001017

More Conditions Fewer Conditions

10-Day Weather Forecast

Almanac

Astronomy

Feb. 27, 2015 Rise Set
Actual Time
Civil Twilight
Nautical Twilight
Astronomical Twilight
Moon
Length of Visible Light
Length of Day
Tomorrow will be .
, % of the Moon is Illuminated

Today's Extremes

State Highs State Lows

Community

WunderPhotos

Upload Photos

1,800,878 photos uploaded!

WunderBlogs® & News

Nearby

Air Quality

  Air Quality AQ Index Pollutant
Not available.

Snow Depth

Station Depth Elevation

Earthquake Activity

City Distance Mag. Time & Date
Minimum magnitude displayed is 2.5.

Coastal Water Temperatures

Place Temperature

Nearby Weather Stations